sensor_id;sensor_type;location;lat;lon;timestamp;pressure;altitude;pressure_sealevel;temperature;humidity
64853;BME280;56050;55.558;-4.644;2024-02-21T00:01:58;101255.69;;;7.87;66.81
64853;BME280;56050;55.558;-4.644;2024-02-21T00:04:24;101245.63;;;7.81;66.76
64853;BME280;56050;55.558;-4.644;2024-02-21T00:06:49;101224.38;;;7.72;67.11
64853;BME280;56050;55.558;-4.644;2024-02-21T00:09:14;101222.31;;;7.65;67.02
64853;BME280;56050;55.558;-4.644;2024-02-21T00:11:40;101224.19;;;7.61;67.05
64853;BME280;56050;55.558;-4.644;2024-02-21T00:14:05;101239.06;;;7.59;67.16
64853;BME280;56050;55.558;-4.644;2024-02-21T00:16:31;101240.88;;;7.55;67.14
64853;BME280;56050;55.558;-4.644;2024-02-21T00:18:56;101223.97;;;7.51;67.19
64853;BME280;56050;55.558;-4.644;2024-02-21T00:21:22;101209.72;;;7.47;67.18
64853;BME280;56050;55.558;-4.644;2024-02-21T00:23:47;101227.69;;;7.46;67.20
64853;BME280;56050;55.558;-4.644;2024-02-21T00:26:15;101214.25;;;7.43;67.14
64853;BME280;56050;55.558;-4.644;2024-02-21T00:28:41;101190.38;;;7.38;67.29
64853;BME280;56050;55.558;-4.644;2024-02-21T00:31:06;101171.56;;;7.34;67.35
64853;BME280;56050;55.558;-4.644;2024-02-21T00:33:31;101176.06;;;7.30;67.28
64853;BME280;56050;55.558;-4.644;2024-02-21T00:35:57;101169.50;;;7.28;67.31
64853;BME280;56050;55.558;-4.644;2024-02-21T00:38:22;101168.66;;;7.24;67.29
64853;BME280;56050;55.558;-4.644;2024-02-21T00:40:47;101152.16;;;7.22;67.26
64853;BME280;56050;55.558;-4.644;2024-02-21T00:43:13;101148.63;;;7.18;67.38
64853;BME280;56050;55.558;-4.644;2024-02-21T00:45:38;101151.56;;;7.13;67.37
64853;BME280;56050;55.558;-4.644;2024-02-21T00:48:04;101159.56;;;7.09;67.40
64853;BME280;56050;55.558;-4.644;2024-02-21T00:50:30;101162.53;;;7.04;67.40
64853;BME280;56050;55.558;-4.644;2024-02-21T00:52:55;101145.59;;;7.00;67.43
64853;BME280;56050;55.558;-4.644;2024-02-21T00:55:21;101137.13;;;6.98;67.55
64853;BME280;56050;55.558;-4.644;2024-02-21T00:57:46;101132.47;;;6.95;67.56
64853;BME280;56050;55.558;-4.644;2024-02-21T01:00:12;101119.00;;;6.91;67.53
64853;BME280;56050;55.558;-4.644;2024-02-21T01:02:37;101113.22;;;6.89;67.56
64853;BME280;56050;55.558;-4.644;2024-02-21T01:05:03;101106.41;;;6.92;67.57
64853;BME280;56050;55.558;-4.644;2024-02-21T01:07:28;101082.63;;;6.90;67.63
64853;BME280;56050;55.558;-4.644;2024-02-21T01:09:54;101066.56;;;6.90;67.61
64853;BME280;56050;55.558;-4.644;2024-02-21T01:12:19;101057.78;;;6.90;67.59
64853;BME280;56050;55.558;-4.644;2024-02-21T01:14:45;101076.53;;;6.90;67.49
64853;BME280;56050;55.558;-4.644;2024-02-21T01:17:14;101052.06;;;6.91;67.47
64853;BME280;56050;55.558;-4.644;2024-02-21T01:19:40;101051.34;;;6.94;67.52
64853;BME280;56050;55.558;-4.644;2024-02-21T01:22:05;101043.69;;;6.93;67.49
64853;BME280;56050;55.558;-4.644;2024-02-21T01:24:31;101049.47;;;6.95;67.39
64853;BME280;56050;55.558;-4.644;2024-02-21T01:26:56;101047.13;;;6.93;67.39
64853;BME280;56050;55.558;-4.644;2024-02-21T01:29:22;101034.88;;;6.92;67.42
64853;BME280;56050;55.558;-4.644;2024-02-21T01:31:47;101027.63;;;6.93;67.24
64853;BME280;56050;55.558;-4.644;2024-02-21T01:34:12;101019.22;;;6.94;67.38
64853;BME280;56050;55.558;-4.644;2024-02-21T01:36:38;101009.28;;;6.95;67.29
64853;BME280;56050;55.558;-4.644;2024-02-21T01:39:03;101005.81;;;6.94;67.31
64853;BME280;56050;55.558;-4.644;2024-02-21T01:41:32;101001.66;;;6.97;67.30
64853;BME280;56050;55.558;-4.644;2024-02-21T01:43:58;100997.09;;;6.97;67.16
64853;BME280;56050;55.558;-4.644;2024-02-21T01:46:23;100995.53;;;6.96;67.20
64853;BME280;56050;55.558;-4.644;2024-02-21T01:48:53;100997.09;;;6.97;67.24
64853;BME280;56050;55.558;-4.644;2024-02-21T01:51:19;100990.94;;;6.97;67.15
64853;BME280;56050;55.558;-4.644;2024-02-21T01:53:45;100978.34;;;6.97;67.08
64853;BME280;56050;55.558;-4.644;2024-02-21T01:56:12;100971.09;;;6.98;67.02
64853;BME280;56050;55.558;-4.644;2024-02-21T01:58:39;100968.03;;;6.99;67.01
64853;BME280;56050;55.558;-4.644;2024-02-21T02:01:06;100952.38;;;7.01;67.18
64853;BME280;56050;55.558;-4.644;2024-02-21T02:03:31;100949.44;;;7.06;66.97
64853;BME280;56050;55.558;-4.644;2024-02-21T02:05:57;100947.16;;;7.08;67.01
64853;BME280;56050;55.558;-4.644;2024-02-21T02:08:23;100940.69;;;7.09;66.88
64853;BME280;56050;55.558;-4.644;2024-02-21T02:10:54;100941.09;;;7.12;66.89
64853;BME280;56050;55.558;-4.644;2024-02-21T02:13:21;100946.88;;;7.14;66.93
64853;BME280;56050;55.558;-4.644;2024-02-21T02:15:47;100940.78;;;7.17;66.78
64853;BME280;56050;55.558;-4.644;2024-02-21T02:18:16;100926.63;;;7.16;66.88
64853;BME280;56050;55.558;-4.644;2024-02-21T02:20:53;100893.34;;;7.17;66.86
64853;BME280;56050;55.558;-4.644;2024-02-21T02:23:33;100861.97;;;7.18;66.90
64853;BME280;56050;55.558;-4.644;2024-02-21T02:26:01;100849.41;;;7.22;66.86
64853;BME280;56050;55.558;-4.644;2024-02-21T02:28:33;100828.38;;;7.24;66.90
64853;BME280;56050;55.558;-4.644;2024-02-21T02:31:09;100818.91;;;7.30;66.97
64853;BME280;56050;55.558;-4.644;2024-02-21T02:33:39;100812.88;;;7.36;67.01
64853;BME280;56050;55.558;-4.644;2024-02-21T02:36:13;100817.91;;;7.41;66.79
64853;BME280;56050;55.558;-4.644;2024-02-21T02:38:44;100827.53;;;7.46;66.86
64853;BME280;56050;55.558;-4.644;2024-02-21T02:41:12;100825.69;;;7.50;66.67
64853;BME280;56050;55.558;-4.644;2024-02-21T02:43:39;100813.88;;;7.54;66.73
64853;BME280;56050;55.558;-4.644;2024-02-21T02:46:07;100806.66;;;7.58;66.69
64853;BME280;56050;55.558;-4.644;2024-02-21T02:48:36;100782.94;;;7.60;66.38
64853;BME280;56050;55.558;-4.644;2024-02-21T02:51:16;100768.41;;;7.61;66.60
64853;BME280;56050;55.558;-4.644;2024-02-21T02:53:47;100743.56;;;7.64;66.57
64853;BME280;56050;55.558;-4.644;2024-02-21T02:56:16;100736.31;;;7.68;66.63
64853;BME280;56050;55.558;-4.644;2024-02-21T02:58:49;100716.47;;;7.77;66.57
64853;BME280;56050;55.558;-4.644;2024-02-21T03:01:18;100703.56;;;7.86;66.52
64853;BME280;56050;55.558;-4.644;2024-02-21T03:03:44;100694.41;;;7.90;66.31
64853;BME280;56050;55.558;-4.644;2024-02-21T03:06:12;100696.78;;;7.95;66.37
64853;BME280;56050;55.558;-4.644;2024-02-21T03:08:38;100690.66;;;7.98;66.29
64853;BME280;56050;55.558;-4.644;2024-02-21T03:11:05;100682.59;;;7.98;66.20
64853;BME280;56050;55.558;-4.644;2024-02-21T03:13:32;100666.88;;;7.97;66.10
64853;BME280;56050;55.558;-4.644;2024-02-21T03:15:57;100644.31;;;7.98;66.13
64853;BME280;56050;55.558;-4.644;2024-02-21T03:18:24;100629.72;;;7.95;66.09
64853;BME280;56050;55.558;-4.644;2024-02-21T03:20:50;100612.44;;;7.93;66.23
64853;BME280;56050;55.558;-4.644;2024-02-21T03:23:16;100584.47;;;7.94;66.48
64853;BME280;56050;55.558;-4.644;2024-02-21T03:25:42;100582.19;;;7.96;66.77
64853;BME280;56050;55.558;-4.644;2024-02-21T03:28:09;100576.84;;;7.99;66.84
64853;BME280;56050;55.558;-4.644;2024-02-21T03:30:35;100571.13;;;8.04;66.83
64853;BME280;56050;55.558;-4.644;2024-02-21T03:33:04;100561.22;;;8.08;66.99
64853;BME280;56050;55.558;-4.644;2024-02-21T03:35:30;100568.53;;;8.15;67.07
64853;BME280;56050;55.558;-4.644;2024-02-21T03:37:56;100568.94;;;8.20;67.12
64853;BME280;56050;55.558;-4.644;2024-02-21T03:40:23;100556.34;;;8.24;67.08
64853;BME280;56050;55.558;-4.644;2024-02-21T03:42:50;100546.41;;;8.28;67.17
64853;BME280;56050;55.558;-4.644;2024-02-21T03:45:15;100543.00;;;8.35;67.10
64853;BME280;56050;55.558;-4.644;2024-02-21T03:47:42;100529.63;;;8.39;67.08
64853;BME280;56050;55.558;-4.644;2024-02-21T03:50:14;100525.78;;;8.43;67.15
64853;BME280;56050;55.558;-4.644;2024-02-21T03:52:39;100518.94;;;8.49;67.10
64853;BME280;56050;55.558;-4.644;2024-02-21T03:55:11;100504.75;;;8.52;66.99
64853;BME280;56050;55.558;-4.644;2024-02-21T03:58:00;100489.41;;;8.56;66.89
64853;BME280;56050;55.558;-4.644;2024-02-21T04:00:32;100481.78;;;8.62;66.81
64853;BME280;56050;55.558;-4.644;2024-02-21T04:02:57;100464.13;;;8.64;66.79
64853;BME280;56050;55.558;-4.644;2024-02-21T04:05:23;100451.09;;;8.70;66.75
64853;BME280;56050;55.558;-4.644;2024-02-21T04:07:54;100433.09;;;8.74;66.76
64853;BME280;56050;55.558;-4.644;2024-02-21T04:10:23;100418.53;;;8.78;66.73
64853;BME280;56050;55.558;-4.644;2024-02-21T04:12:48;100397.06;;;8.85;66.59
64853;BME280;56050;55.558;-4.644;2024-02-21T04:15:19;100377.09;;;8.86;66.56
64853;BME280;56050;55.558;-4.644;2024-02-21T04:17:45;100367.53;;;8.89;66.62
64853;BME280;56050;55.558;-4.644;2024-02-21T04:20:18;100346.03;;;8.89;66.69
64853;BME280;56050;55.558;-4.644;2024-02-21T04:22:45;100336.44;;;8.92;66.76
64853;BME280;56050;55.558;-4.644;2024-02-21T04:25:12;100316.88;;;8.95;66.58
64853;BME280;56050;55.558;-4.644;2024-02-21T04:27:39;100294.59;;;8.98;66.64
64853;BME280;56050;55.558;-4.644;2024-02-21T04:30:19;100286.53;;;9.05;66.67
64853;BME280;56050;55.558;-4.644;2024-02-21T04:32:47;100257.34;;;9.07;66.48
64853;BME280;56050;55.558;-4.644;2024-02-21T04:35:16;100250.44;;;9.09;66.33
64853;BME280;56050;55.558;-4.644;2024-02-21T04:37:42;100234.72;;;9.11;66.45
64853;BME280;56050;55.558;-4.644;2024-02-21T04:40:13;100232.00;;;9.15;66.72
64853;BME280;56050;55.558;-4.644;2024-02-21T04:42:45;100218.56;;;9.18;66.62
64853;BME280;56050;55.558;-4.644;2024-02-21T04:45:15;100208.56;;;9.22;66.80
64853;BME280;56050;55.558;-4.644;2024-02-21T04:47:40;100218.16;;;9.23;66.96
64853;BME280;56050;55.558;-4.644;2024-02-21T04:50:09;100195.88;;;9.26;67.00
64853;BME280;56050;55.558;-4.644;2024-02-21T04:52:37;100195.47;;;9.31;67.17
64853;BME280;56050;55.558;-4.644;2024-02-21T04:55:07;100177.44;;;9.35;67.14
64853;BME280;56050;55.558;-4.644;2024-02-21T04:57:34;100165.50;;;9.36;67.33
64853;BME280;56050;55.558;-4.644;2024-02-21T05:00:02;100150.91;;;9.37;67.45
64853;BME280;56050;55.558;-4.644;2024-02-21T05:02:30;100130.53;;;9.40;67.42
64853;BME280;56050;55.558;-4.644;2024-02-21T05:04:56;100101.75;;;9.40;67.51
64853;BME280;56050;55.558;-4.644;2024-02-21T05:07:21;100089.06;;;9.41;67.47
64853;BME280;56050;55.558;-4.644;2024-02-21T05:09:47;100077.91;;;9.42;67.57
64853;BME280;56050;55.558;-4.644;2024-02-21T05:12:12;100068.72;;;9.40;67.67
64853;BME280;56050;55.558;-4.644;2024-02-21T05:14:37;100073.31;;;9.43;67.65
64853;BME280;56050;55.558;-4.644;2024-02-21T05:17:04;100064.09;;;9.40;67.89
64853;BME280;56050;55.558;-4.644;2024-02-21T05:19:29;100067.94;;;9.39;67.89
64853;BME280;56050;55.558;-4.644;2024-02-21T05:21:55;100070.63;;;9.39;67.97
64853;BME280;56050;55.558;-4.644;2024-02-21T05:24:20;100064.88;;;9.41;68.01
64853;BME280;56050;55.558;-4.644;2024-02-21T05:26:46;100059.88;;;9.43;67.96
64853;BME280;56050;55.558;-4.644;2024-02-21T05:29:11;100045.66;;;9.39;67.97
64853;BME280;56050;55.558;-4.644;2024-02-21T05:31:55;100034.97;;;9.32;68.28
64853;BME280;56050;55.558;-4.644;2024-02-21T05:34:22;100034.63;;;9.26;68.39
64853;BME280;56050;55.558;-4.644;2024-02-21T05:36:47;100026.56;;;9.23;68.67
64853;BME280;56050;55.558;-4.644;2024-02-21T05:39:15;100020.06;;;9.20;68.79
64853;BME280;56050;55.558;-4.644;2024-02-21T05:41:41;100009.38;;;9.17;68.90
64853;BME280;56050;55.558;-4.644;2024-02-21T05:44:07;100003.59;;;9.18;69.13
64853;BME280;56050;55.558;-4.644;2024-02-21T05:46:32;100000.91;;;9.18;69.20
64853;BME280;56050;55.558;-4.644;2024-02-21T05:48:57;99991.69;;;9.19;69.61
64853;BME280;56050;55.558;-4.644;2024-02-21T05:51:23;99970.56;;;9.21;69.56
64853;BME280;56050;55.558;-4.644;2024-02-21T05:53:48;99967.88;;;9.21;69.80
64853;BME280;56050;55.558;-4.644;2024-02-21T05:56:14;99958.25;;;9.20;69.87
64853;BME280;56050;55.558;-4.644;2024-02-21T05:58:40;99949.84;;;9.18;70.26
64853;BME280;56050;55.558;-4.644;2024-02-21T06:01:06;99945.25;;;9.19;70.40
64853;BME280;56050;55.558;-4.644;2024-02-21T06:03:32;99932.94;;;9.18;70.73
64853;BME280;56050;55.558;-4.644;2024-02-21T06:05:59;99922.59;;;9.16;70.86
64853;BME280;56050;55.558;-4.644;2024-02-21T06:08:25;99913.75;;;9.19;70.89
64853;BME280;56050;55.558;-4.644;2024-02-21T06:10:50;99895.31;;;9.21;70.86
64853;BME280;56050;55.558;-4.644;2024-02-21T06:13:26;99873.81;;;9.21;70.90
64853;BME280;56050;55.558;-4.644;2024-02-21T06:15:51;99855.78;;;9.22;70.95
64853;BME280;56050;55.558;-4.644;2024-02-21T06:18:20;99835.00;;;9.22;70.97
64853;BME280;56050;55.558;-4.644;2024-02-21T06:20:46;99819.28;;;9.24;71.05
64853;BME280;56050;55.558;-4.644;2024-02-21T06:23:12;99808.13;;;9.26;71.05
64853;BME280;56050;55.558;-4.644;2024-02-21T06:25:39;99800.06;;;9.26;71.03
64853;BME280;56050;55.558;-4.644;2024-02-21T06:28:05;99768.22;;;9.24;71.25
64853;BME280;56050;55.558;-4.644;2024-02-21T06:30:31;99763.97;;;9.27;71.08
64853;BME280;56050;55.558;-4.644;2024-02-21T06:32:56;99749.72;;;9.30;71.17
64853;BME280;56050;55.558;-4.644;2024-02-21T06:35:22;99743.19;;;9.31;71.13
64853;BME280;56050;55.558;-4.644;2024-02-21T06:37:51;99725.47;;;9.33;71.31
64853;BME280;56050;55.558;-4.644;2024-02-21T06:40:22;99722.00;;;9.36;71.32
64853;BME280;56050;55.558;-4.644;2024-02-21T06:42:49;99696.31;;;9.35;71.38
64853;BME280;56050;55.558;-4.644;2024-02-21T06:45:15;99686.69;;;9.34;71.63
64853;BME280;56050;55.558;-4.644;2024-02-21T06:47:41;99662.13;;;9.36;71.60
64853;BME280;56050;55.558;-4.644;2024-02-21T06:50:06;99644.81;;;9.37;71.56
64853;BME280;56050;55.558;-4.644;2024-02-21T06:52:32;99627.22;;;9.32;71.62
64853;BME280;56050;55.558;-4.644;2024-02-21T06:54:57;99607.28;;;9.30;71.59
64853;BME280;56050;55.558;-4.644;2024-02-21T06:57:22;99601.53;;;9.28;71.75
64853;BME280;56050;55.558;-4.644;2024-02-21T06:59:48;99598.84;;;9.28;71.85
64853;BME280;56050;55.558;-4.644;2024-02-21T07:02:13;99586.25;;;9.25;72.05
64853;BME280;56050;55.558;-4.644;2024-02-21T07:04:39;99580.47;;;9.26;72.17
64853;BME280;56050;55.558;-4.644;2024-02-21T07:07:04;99572.81;;;9.25;72.30
64853;BME280;56050;55.558;-4.644;2024-02-21T07:09:30;99552.03;;;9.29;72.35
64853;BME280;56050;55.558;-4.644;2024-02-21T07:11:58;99537.44;;;9.30;72.38
64853;BME280;56050;55.558;-4.644;2024-02-21T07:14:23;99520.50;;;9.33;72.34
64853;BME280;56050;55.558;-4.644;2024-02-21T07:16:48;99503.56;;;9.36;72.51
64853;BME280;56050;55.558;-4.644;2024-02-21T07:19:14;99487.00;;;9.37;72.31
64853;BME280;56050;55.558;-4.644;2024-02-21T07:21:39;99479.66;;;9.41;72.43
64853;BME280;56050;55.558;-4.644;2024-02-21T07:24:07;99461.97;;;9.44;72.52
64853;BME280;56050;55.558;-4.644;2024-02-21T07:26:33;99448.44;;;9.48;72.64
64853;BME280;56050;55.558;-4.644;2024-02-21T07:28:59;99439.50;;;9.54;72.86
64853;BME280;56050;55.558;-4.644;2024-02-21T07:31:24;99425.88;;;9.65;73.12
64853;BME280;56050;55.558;-4.644;2024-02-21T07:33:49;99422.25;;;9.75;73.11
64853;BME280;56050;55.558;-4.644;2024-02-21T07:36:15;99410.13;;;9.86;73.21
64853;BME280;56050;55.558;-4.644;2024-02-21T07:38:40;99398.03;;;9.94;72.98
64853;BME280;56050;55.558;-4.644;2024-02-21T07:41:05;99390.97;;;10.04;72.98
64853;BME280;56050;55.558;-4.644;2024-02-21T07:43:31;99382.72;;;10.11;73.12
64853;BME280;56050;55.558;-4.644;2024-02-21T07:45:56;99374.56;;;10.18;73.30
64853;BME280;56050;55.558;-4.644;2024-02-21T07:48:22;99354.78;;;10.25;73.47
64853;BME280;56050;55.558;-4.644;2024-02-21T07:50:51;99344.22;;;10.34;73.41
64853;BME280;56050;55.558;-4.644;2024-02-21T07:53:17;99326.41;;;10.40;73.63
64853;BME280;56050;55.558;-4.644;2024-02-21T07:55:42;99308.91;;;10.48;73.75
64853;BME280;56050;55.558;-4.644;2024-02-21T07:58:09;99307.56;;;10.56;73.69
64853;BME280;56050;55.558;-4.644;2024-02-21T08:00:34;99309.00;;;10.60;73.70
64853;BME280;56050;55.558;-4.644;2024-02-21T08:03:00;99299.25;;;10.67;73.61
64853;BME280;56050;55.558;-4.644;2024-02-21T08:05:25;99286.03;;;10.72;73.65
64853;BME280;56050;55.558;-4.644;2024-02-21T08:07:51;99276.69;;;10.77;73.65
64853;BME280;56050;55.558;-4.644;2024-02-21T08:10:16;99272.72;;;10.81;73.61
64853;BME280;56050;55.558;-4.644;2024-02-21T08:12:41;99246.88;;;10.84;73.53
64853;BME280;56050;55.558;-4.644;2024-02-21T08:15:07;99251.44;;;10.87;73.65
64853;BME280;56050;55.558;-4.644;2024-02-21T08:17:36;99251.34;;;10.90;73.56
64853;BME280;56050;55.558;-4.644;2024-02-21T08:20:02;99247.03;;;10.93;73.65
64853;BME280;56050;55.558;-4.644;2024-02-21T08:22:28;99232.72;;;10.96;73.57
64853;BME280;56050;55.558;-4.644;2024-02-21T08:24:53;99234.56;;;10.99;73.53
64853;BME280;56050;55.558;-4.644;2024-02-21T08:27:19;99228.00;;;11.00;73.62
64853;BME280;56050;55.558;-4.644;2024-02-21T08:29:44;99219.06;;;11.03;73.66
64853;BME280;56050;55.558;-4.644;2024-02-21T08:32:10;99218.22;;;11.06;73.56
64853;BME280;56050;55.558;-4.644;2024-02-21T08:34:35;99193.97;;;11.06;73.61
64853;BME280;56050;55.558;-4.644;2024-02-21T08:37:01;99186.19;;;11.08;73.48
64853;BME280;56050;55.558;-4.644;2024-02-21T08:39:26;99172.31;;;11.09;73.55
64853;BME280;56050;55.558;-4.644;2024-02-21T08:41:54;99169.19;;;11.11;73.42
64853;BME280;56050;55.558;-4.644;2024-02-21T08:44:19;99167.25;;;11.11;73.36
64853;BME280;56050;55.558;-4.644;2024-02-21T08:46:45;99150.31;;;11.11;73.66
64853;BME280;56050;55.558;-4.644;2024-02-21T08:49:12;99152.25;;;11.10;73.56
64853;BME280;56050;55.558;-4.644;2024-02-21T08:51:39;99149.13;;;11.12;73.52
64853;BME280;56050;55.558;-4.644;2024-02-21T08:54:04;99140.63;;;11.13;73.50
64853;BME280;56050;55.558;-4.644;2024-02-21T08:56:30;99130.28;;;11.12;73.45
64853;BME280;56050;55.558;-4.644;2024-02-21T08:58:56;99122.50;;;11.14;73.62
64853;BME280;56050;55.558;-4.644;2024-02-21T09:01:23;99108.63;;;11.15;73.80
64853;BME280;56050;55.558;-4.644;2024-02-21T09:03:48;99110.13;;;11.16;73.60
64853;BME280;56050;55.558;-4.644;2024-02-21T09:06:19;99097.72;;;11.19;73.85
64853;BME280;56050;55.558;-4.644;2024-02-21T09:08:46;99104.63;;;11.20;73.67
64853;BME280;56050;55.558;-4.644;2024-02-21T09:11:11;99087.28;;;11.21;73.85
64853;BME280;56050;55.558;-4.644;2024-02-21T09:13:37;99064.09;;;11.24;73.80
64853;BME280;56050;55.558;-4.644;2024-02-21T09:16:02;99065.19;;;11.26;73.88
64853;BME280;56050;55.558;-4.644;2024-02-21T09:18:29;99072.81;;;11.28;73.80
64853;BME280;56050;55.558;-4.644;2024-02-21T09:20:55;99042.75;;;11.29;73.82
64853;BME280;56050;55.558;-4.644;2024-02-21T09:23:20;99048.88;;;11.30;73.97
64853;BME280;56050;55.558;-4.644;2024-02-21T09:25:46;99033.06;;;11.32;73.93
64853;BME280;56050;55.558;-4.644;2024-02-21T09:28:12;99024.50;;;11.33;73.90
64853;BME280;56050;55.558;-4.644;2024-02-21T09:30:38;99020.19;;;11.36;74.05
64853;BME280;56050;55.558;-4.644;2024-02-21T09:33:04;99005.84;;;11.39;73.98
64853;BME280;56050;55.558;-4.644;2024-02-21T09:35:30;99006.94;;;11.41;74.13
64853;BME280;56050;55.558;-4.644;2024-02-21T09:37:56;98986.88;;;11.42;74.11
64853;BME280;56050;55.558;-4.644;2024-02-21T09:40:22;98987.63;;;11.43;73.98
64853;BME280;56050;55.558;-4.644;2024-02-21T09:42:48;98977.94;;;11.45;74.11
64853;BME280;56050;55.558;-4.644;2024-02-21T09:50:32;98945.13;;;11.47;74.23
64853;BME280;56050;55.558;-4.644;2024-02-21T09:53:00;98931.94;;;11.49;74.22
64853;BME280;56050;55.558;-4.644;2024-02-21T09:55:29;98939.31;;;11.48;74.23
64853;BME280;56050;55.558;-4.644;2024-02-21T09:57:58;98930.00;;;11.49;74.33
64853;BME280;56050;55.558;-4.644;2024-02-21T10:00:24;98924.19;;;11.51;74.27
64853;BME280;56050;55.558;-4.644;2024-02-21T10:02:50;98913.41;;;11.51;74.43
64853;BME280;56050;55.558;-4.644;2024-02-21T10:05:16;98906.81;;;11.52;74.29
64853;BME280;56050;55.558;-4.644;2024-02-21T10:07:43;98899.78;;;11.54;74.47
64853;BME280;56050;55.558;-4.644;2024-02-21T10:10:09;98902.84;;;11.56;74.55
64853;BME280;56050;55.558;-4.644;2024-02-21T10:12:35;98892.34;;;11.58;74.29
64853;BME280;56050;55.558;-4.644;2024-02-21T10:15:04;98890.41;;;11.59;74.37
64853;BME280;56050;55.558;-4.644;2024-02-21T10:17:31;98883.38;;;11.61;74.51
64853;BME280;56050;55.558;-4.644;2024-02-21T10:20:07;98886.41;;;11.63;74.47
64853;BME280;56050;55.558;-4.644;2024-02-21T10:22:33;98878.59;;;11.65;74.53
64853;BME280;56050;55.558;-4.644;2024-02-21T10:25:10;98878.59;;;11.65;74.53
64853;BME280;56050;55.558;-4.644;2024-02-21T10:27:37;98877.75;;;11.68;74.52
64853;BME280;56050;55.558;-4.644;2024-02-21T10:30:04;98877.75;;;11.68;74.57
64853;BME280;56050;55.558;-4.644;2024-02-21T10:32:30;98873.88;;;11.69;74.45
64853;BME280;56050;55.558;-4.644;2024-02-21T10:35:03;98871.50;;;11.71;74.48
64853;BME280;56050;55.558;-4.644;2024-02-21T10:37:34;98860.28;;;11.73;74.35
64853;BME280;56050;55.558;-4.644;2024-02-21T10:40:00;98853.25;;;11.75;74.28
64853;BME280;56050;55.558;-4.644;2024-02-21T10:42:29;98855.97;;;11.75;74.37
64853;BME280;56050;55.558;-4.644;2024-02-21T10:45:00;98856.25;;;11.77;74.50
64853;BME280;56050;55.558;-4.644;2024-02-21T10:47:31;98860.47;;;11.78;74.54
64853;BME280;56050;55.558;-4.644;2024-02-21T10:50:02;98851.19;;;11.79;74.44
64853;BME280;56050;55.558;-4.644;2024-02-21T10:55:26;98844.91;;;11.83;74.69
64853;BME280;56050;55.558;-4.644;2024-02-21T10:57:56;98841.44;;;11.82;74.52
64853;BME280;56050;55.558;-4.644;2024-02-21T11:00:23;98843.41;;;11.82;74.59
64853;BME280;56050;55.558;-4.644;2024-02-21T11:02:56;98844.16;;;11.82;74.67
64853;BME280;56050;55.558;-4.644;2024-02-21T11:05:24;98834.44;;;11.85;74.62
64853;BME280;56050;55.558;-4.644;2024-02-21T11:07:49;98830.53;;;11.86;74.83
64853;BME280;56050;55.558;-4.644;2024-02-21T11:10:26;98832.81;;;11.87;74.54
64853;BME280;56050;55.558;-4.644;2024-02-21T11:13:06;98824.25;;;11.89;74.80
64853;BME280;56050;55.558;-4.644;2024-02-21T11:15:32;98827.59;;;11.93;74.82
64853;BME280;56050;55.558;-4.644;2024-02-21T11:17:58;98819.81;;;11.95;74.80
64853;BME280;56050;55.558;-4.644;2024-02-21T11:20:36;98815.94;;;11.96;74.85
64853;BME280;56050;55.558;-4.644;2024-02-21T11:23:02;98817.00;;;11.98;74.75
64853;BME280;56050;55.558;-4.644;2024-02-21T11:25:29;98818.03;;;12.01;74.62
64853;BME280;56050;55.558;-4.644;2024-02-21T11:28:07;98810.72;;;12.01;74.72
64853;BME280;56050;55.558;-4.644;2024-02-21T11:30:35;98811.00;;;12.03;74.75
64853;BME280;56050;55.558;-4.644;2024-02-21T11:33:06;98807.09;;;12.04;74.87
64853;BME280;56050;55.558;-4.644;2024-02-21T11:35:35;98808.63;;;12.05;74.55
64853;BME280;56050;55.558;-4.644;2024-02-21T11:38:13;98810.13;;;12.06;74.84
64853;BME280;56050;55.558;-4.644;2024-02-21T11:40:45;98813.88;;;12.09;74.86
64853;BME280;56050;55.558;-4.644;2024-02-21T11:43:11;98810.59;;;12.14;74.83
64853;BME280;56050;55.558;-4.644;2024-02-21T11:45:37;98802.69;;;12.19;75.06
64853;BME280;56050;55.558;-4.644;2024-02-21T11:48:05;98798.97;;;12.26;75.05
64853;BME280;56050;55.558;-4.644;2024-02-21T11:50:31;98806.78;;;12.33;74.83
64853;BME280;56050;55.558;-4.644;2024-02-21T11:52:57;98800.38;;;12.40;74.72
64853;BME280;56050;55.558;-4.644;2024-02-21T11:55:23;98804.72;;;12.46;74.74
64853;BME280;56050;55.558;-4.644;2024-02-21T11:57:48;98802.06;;;12.55;74.57
64853;BME280;56050;55.558;-4.644;2024-02-21T12:00:18;98808.41;;;12.61;74.77
64853;BME280;56050;55.558;-4.644;2024-02-21T12:02:47;98813.22;;;12.66;74.60
64853;BME280;56050;55.558;-4.644;2024-02-21T12:05:13;98797.59;;;12.70;74.77
64853;BME280;56050;55.558;-4.644;2024-02-21T12:07:39;98814.44;;;12.74;74.69
64853;BME280;56050;55.558;-4.644;2024-02-21T12:10:11;98813.53;;;12.77;74.72
64853;BME280;56050;55.558;-4.644;2024-02-21T12:12:38;98801.09;;;12.80;74.43
64853;BME280;56050;55.558;-4.644;2024-02-21T12:15:05;98812.34;;;12.87;74.73
64853;BME280;56050;55.558;-4.644;2024-02-21T12:17:33;98824.97;;;12.90;74.31
64853;BME280;56050;55.558;-4.644;2024-02-21T12:19:59;98824.06;;;12.93;74.45
64853;BME280;56050;55.558;-4.644;2024-02-21T12:22:25;98820.47;;;12.96;74.51
64853;BME280;56050;55.558;-4.644;2024-02-21T12:24:50;98815.84;;;12.97;74.12
64853;BME280;56050;55.558;-4.644;2024-02-21T12:27:16;98825.59;;;12.94;74.27
64853;BME280;56050;55.558;-4.644;2024-02-21T12:29:41;98837.88;;;12.95;74.28
64853;BME280;56050;55.558;-4.644;2024-02-21T12:32:07;98825.44;;;12.98;74.65
64853;BME280;56050;55.558;-4.644;2024-02-21T12:34:32;98825.44;;;12.98;74.72
64853;BME280;56050;55.558;-4.644;2024-02-21T12:36:58;98838.50;;;13.00;74.56
64853;BME280;56050;55.558;-4.644;2024-02-21T12:39:24;98848.88;;;13.01;74.56
64853;BME280;56050;55.558;-4.644;2024-02-21T12:41:49;98858.19;;;13.00;74.70
64853;BME280;56050;55.558;-4.644;2024-02-21T12:44:15;98856.69;;;12.99;74.71
64853;BME280;56050;55.558;-4.644;2024-02-21T12:46:42;98859.25;;;13.03;74.56
64853;BME280;56050;55.558;-4.644;2024-02-21T12:49:08;98844.50;;;13.04;74.50
64853;BME280;56050;55.558;-4.644;2024-02-21T12:51:34;98865.84;;;13.02;74.56
64853;BME280;56050;55.558;-4.644;2024-02-21T12:54:00;98865.41;;;13.03;74.80
64853;BME280;56050;55.558;-4.644;2024-02-21T12:56:26;98864.94;;;13.05;74.80
64853;BME280;56050;55.558;-4.644;2024-02-21T12:58:53;98875.66;;;13.08;74.78
64853;BME280;56050;55.558;-4.644;2024-02-21T13:01:18;98871.31;;;13.11;75.00